Time;durP1;ratioP1;P1;durP2;ratioP2;P2;SDS_P1;SDS_P2;PMS_P1;PMS_P2;Temp;Humidity;BMP_temperature;BMP_pressure;BME280_temperature;BME280_humidity;BME280_pressure;Samples;Min_cycle;Max_cycle;Signal;HPM_P1;HPM_P2
2021/10/27 00:00:45;;;;;;;27.25;13.80;;;10.70;99.90;;;;;;5028228;28;20045;-70
2021/10/27 00:03:49;;;;;;;28.75;14.13;;;10.70;99.90;;;;;;5038773;28;20048;-70
2021/10/27 00:06:53;;;;;;;23.42;13.02;;;10.70;99.90;;;;;;5039175;28;20028;-69
2021/10/27 00:09:58;;;;;;;35.72;16.25;;;10.60;99.90;;;;;;5045027;28;20052;-70
2021/10/27 00:13:02;;;;;;;24.48;13.88;;;10.50;99.90;;;;;;5043170;28;20052;-69
2021/10/27 00:16:07;;;;;;;28.05;13.57;;;10.40;99.90;;;;;;5044604;28;20048;-69
2021/10/27 00:19:11;;;;;;;34.50;14.80;;;10.40;99.90;;;;;;5036507;28;20052;-70
2021/10/27 00:22:15;;;;;;;29.25;15.43;;;10.30;99.90;;;;;;5035066;28;20048;-69
2021/10/27 00:25:20;;;;;;;28.15;14.43;;;10.30;99.90;;;;;;5037679;28;20048;-69
2021/10/27 00:28:23;;;;;;;30.05;14.25;;;10.30;99.90;;;;;;5041555;28;20371;-69
2021/10/27 00:31:27;;;;;;;28.58;13.88;;;10.30;99.90;;;;;;5039894;28;20052;-69
2021/10/27 00:34:31;;;;;;;25.33;13.32;;;10.30;99.90;;;;;;5038932;28;20036;-69
2021/10/27 00:37:36;;;;;;;29.63;15.30;;;10.20;99.90;;;;;;5034812;28;20033;-69
2021/10/27 00:40:40;;;;;;;26.00;13.95;;;10.30;99.90;;;;;;5039961;28;20048;-70
2021/10/27 00:43:44;;;;;;;27.70;13.23;;;10.20;99.90;;;;;;5043965;28;20068;-69
2021/10/27 00:47:02;;;;;;;28.67;14.23;;;10.20;99.90;;;;;;5032461;28;20057;-69
2021/10/27 00:50:06;;;;;;;26.75;14.23;;;10.20;99.90;;;;;;5042975;28;20048;-70
2021/10/27 00:53:10;;;;;;;33.53;15.68;;;10.20;99.90;;;;;;5036044;28;20040;-70
2021/10/27 00:56:16;;;;;;;26.70;14.35;;;10.10;99.90;;;;;;5034537;28;20105;-69
2021/10/27 00:59:21;;;;;;;30.52;14.70;;;10.10;99.90;;;;;;5023598;28;20039;-70
2021/10/27 01:02:25;;;;;;;32.83;14.23;;;10.10;99.90;;;;;;5036052;28;20043;-69
2021/10/27 01:05:30;;;;;;;24.65;13.70;;;10.00;99.90;;;;;;5040451;28;20050;-70
2021/10/27 01:08:34;;;;;;;29.77;14.48;;;10.00;99.90;;;;;;5036891;28;20044;-69
2021/10/27 01:11:40;;;;;;;28.40;15.02;;;10.00;99.90;;;;;;5039280;28;20056;-69
2021/10/27 01:14:45;;;;;;;34.25;14.50;;;9.90;99.90;;;;;;5043921;28;20048;-69
2021/10/27 01:17:51;;;;;;;25.75;14.55;;;9.80;99.90;;;;;;5038540;28;20394;-69
2021/10/27 01:20:56;;;;;;;29.27;14.55;;;9.80;99.90;;;;;;5043000;28;20036;-69
2021/10/27 01:24:01;;;;;;;29.67;15.65;;;9.80;99.90;;;;;;5033415;28;20044;-69
2021/10/27 01:27:06;;;;;;;29.52;14.75;;;9.70;99.90;;;;;;5044195;28;20372;-69
2021/10/27 01:30:12;;;;;;;31.63;16.70;;;9.60;99.90;;;;;;5029085;28;20047;-70
2021/10/27 01:33:17;;;;;;;29.15;15.98;;;9.60;99.90;;;;;;5040750;28;20032;-69
2021/10/27 01:36:21;;;;;;;26.20;14.63;;;9.60;99.90;;;;;;5037308;28;20035;-69
2021/10/27 01:39:26;;;;;;;31.02;15.57;;;9.70;99.90;;;;;;5033132;28;20056;-69
2021/10/27 01:42:30;;;;;;;29.55;14.80;;;9.80;99.90;;;;;;5032898;28;20040;-69
2021/10/27 01:45:35;;;;;;;30.75;14.90;;;9.70;99.90;;;;;;5033209;28;20048;-69
2021/10/27 01:48:39;;;;;;;26.90;14.00;;;9.80;99.90;;;;;;5041159;28;20048;-69
2021/10/27 01:51:46;;;;;;;29.58;15.20;;;9.80;99.90;;;;;;5030096;28;20044;-69
2021/10/27 01:54:50;;;;;;;31.02;15.25;;;9.80;99.90;;;;;;5042252;28;20045;-69
2021/10/27 01:57:55;;;;;;;27.00;14.60;;;9.80;99.90;;;;;;5035052;28;20044;-69
2021/10/27 02:00:59;;;;;;;25.77;14.40;;;9.70;99.90;;;;;;5044652;28;20043;-70
2021/10/27 02:04:03;;;;;;;28.73;15.48;;;9.70;99.90;;;;;;5041271;28;20047;-69
2021/10/27 02:07:06;;;;;;;24.13;14.15;;;9.70;99.90;;;;;;5035974;28;20048;-69
2021/10/27 02:10:12;;;;;;;31.77;15.23;;;9.60;99.90;;;;;;5032679;28;20041;-69
2021/10/27 02:13:16;;;;;;;31.55;15.55;;;9.60;99.90;;;;;;5030204;28;20044;-70
2021/10/27 02:16:22;;;;;;;33.55;16.17;;;9.60;99.90;;;;;;5051451;28;20044;-69
2021/10/27 02:19:27;;;;;;;27.65;14.40;;;9.60;99.90;;;;;;5039204;28;20502;-69
2021/10/27 02:22:32;;;;;;;30.42;16.08;;;9.50;99.90;;;;;;5032885;28;20048;-69
2021/10/27 02:25:36;;;;;;;30.10;15.15;;;9.60;99.90;;;;;;5025496;28;20108;-70
2021/10/27 02:28:40;;;;;;;27.15;13.85;;;9.60;99.90;;;;;;5038512;28;20124;-69
2021/10/27 02:31:45;;;;;;;28.85;14.30;;;9.60;99.90;;;;;;5042305;28;20048;-69
2021/10/27 02:34:49;;;;;;;27.58;14.52;;;9.60;99.90;;;;;;5031390;28;20483;-69
2021/10/27 02:37:54;;;;;;;25.98;14.73;;;9.60;99.90;;;;;;5041380;28;20052;-69
2021/10/27 02:40:57;;;;;;;31.48;15.50;;;9.60;99.90;;;;;;5018643;28;20049;-69
2021/10/27 02:44:01;;;;;;;30.50;14.73;;;9.60;99.90;;;;;;5039601;28;20052;-69
2021/10/27 02:47:05;;;;;;;25.40;14.20;;;9.60;99.90;;;;;;5039690;28;20055;-70
2021/10/27 02:50:12;;;;;;;27.63;14.35;;;9.60;99.90;;;;;;5028091;28;20167;-69
2021/10/27 02:53:17;;;;;;;34.00;14.57;;;9.60;99.90;;;;;;5034138;28;20044;-69
2021/10/27 02:56:21;;;;;;;34.17;15.80;;;9.50;99.90;;;;;;5031683;28;20495;-69
2021/10/27 02:59:25;;;;;;;34.72;15.00;;;9.50;99.90;;;;;;5033088;28;20391;-69
2021/10/27 03:02:29;;;;;;;22.65;13.27;;;9.50;99.90;;;;;;5033387;28;20068;-69
2021/10/27 03:05:34;;;;;;;29.75;15.65;;;9.50;99.90;;;;;;5041534;28;20387;-69
2021/10/27 03:08:38;;;;;;;27.98;15.13;;;9.40;99.90;;;;;;5033712;28;20068;-69
2021/10/27 03:11:42;;;;;;;37.88;18.92;;;9.40;99.90;;;;;;5036498;28;20044;-69
2021/10/27 03:14:47;;;;;;;29.35;16.10;;;9.40;99.90;;;;;;5039527;28;20511;-69
2021/10/27 03:17:51;;;;;;;29.48;15.75;;;9.40;99.90;;;;;;5037404;28;20494;-69
2021/10/27 03:20:55;;;;;;;31.05;16.35;;;9.30;99.90;;;;;;5038627;28;20056;-69
2021/10/27 03:24:00;;;;;;;31.30;15.38;;;9.40;99.90;;;;;;5039445;28;20056;-69
2021/10/27 03:27:04;;;;;;;27.80;16.33;;;9.40;99.90;;;;;;5038688;28;20044;-69
2021/10/27 03:30:09;;;;;;;36.25;16.67;;;9.30;99.90;;;;;;5027863;28;20372;-69
2021/10/27 03:33:14;;;;;;;27.05;15.45;;;9.30;99.90;;;;;;5029146;28;20040;-70
2021/10/27 03:36:18;;;;;;;33.85;17.33;;;9.30;99.90;;;;;;5035590;28;20100;-69
2021/10/27 03:39:22;;;;;;;30.08;17.55;;;9.20;99.90;;;;;;5033602;28;20431;-69
2021/10/27 03:42:26;;;;;;;34.10;16.50;;;9.10;99.90;;;;;;5033946;28;20048;-69
2021/10/27 03:45:30;;;;;;;42.58;19.92;;;9.10;99.90;;;;;;5031277;28;20111;-69
2021/10/27 03:48:34;;;;;;;31.73;17.40;;;9.10;99.90;;;;;;5044806;28;20048;-69
2021/10/27 03:51:38;;;;;;;32.90;16.55;;;9.10;99.90;;;;;;5031115;28;20053;-69
2021/10/27 03:54:42;;;;;;;33.63;17.02;;;9.10;99.90;;;;;;5035798;28;20049;-69
2021/10/27 03:57:46;;;;;;;36.67;16.98;;;9.10;99.90;;;;;;5037074;28;20040;-69
2021/10/27 04:00:51;;;;;;;31.27;16.42;;;9.00;99.90;;;;;;5040558;28;20079;-69
2021/10/27 04:03:55;;;;;;;30.52;16.30;;;9.00;99.90;;;;;;5033469;28;20045;-69
2021/10/27 04:06:59;;;;;;;27.58;16.17;;;8.80;99.90;;;;;;5042353;28;20395;-69
2021/10/27 04:10:05;;;;;;;32.20;14.80;;;8.80;99.90;;;;;;5043237;28;20048;-69
2021/10/27 04:13:09;;;;;;;30.95;15.20;;;8.70;99.90;;;;;;5035507;28;20040;-69
2021/10/27 04:16:13;;;;;;;36.63;15.82;;;8.70;99.90;;;;;;5033897;28;20048;-69
2021/10/27 04:19:17;;;;;;;34.55;17.52;;;8.60;99.90;;;;;;5035286;28;20036;-69
2021/10/27 04:22:23;;;;;;;30.55;16.08;;;8.50;99.90;;;;;;5037845;28;20399;-69
2021/10/27 04:25:27;;;;;;;31.02;14.70;;;8.50;99.90;;;;;;5035305;28;20301;-69
2021/10/27 04:28:31;;;;;;;31.00;15.43;;;8.60;99.90;;;;;;5036433;28;20121;-69
2021/10/27 04:31:36;;;;;;;32.85;17.75;;;8.60;99.90;;;;;;5035738;28;20044;-69
2021/10/27 04:34:40;;;;;;;34.40;16.52;;;8.70;99.90;;;;;;5044225;28;20040;-69
2021/10/27 04:37:45;;;;;;;30.63;16.75;;;8.70;99.90;;;;;;5013548;28;20044;-69
2021/10/27 04:40:50;;;;;;;30.10;15.40;;;8.70;99.90;;;;;;5043881;28;20041;-69
2021/10/27 04:43:54;;;;;;;32.70;16.15;;;8.80;99.90;;;;;;5042380;28;20047;-69
2021/10/27 04:47:01;;;;;;;31.20;16.35;;;8.80;99.90;;;;;;5045522;28;20048;-69
2021/10/27 04:50:07;;;;;;;32.95;16.77;;;8.90;99.90;;;;;;5037043;28;20040;-70
2021/10/27 04:53:13;;;;;;;34.45;17.02;;;9.00;99.90;;;;;;5035764;28;20399;-69
2021/10/27 04:56:17;;;;;;;34.33;16.77;;;9.00;99.90;;;;;;5037071;28;20490;-69
2021/10/27 04:59:21;;;;;;;32.00;16.60;;;9.10;99.90;;;;;;5033649;28;20056;-69
2021/10/27 05:02:25;;;;;;;37.28;16.08;;;9.10;99.90;;;;;;5032529;28;20052;-69
2021/10/27 05:05:30;;;;;;;36.88;17.70;;;9.10;99.90;;;;;;5036817;28;20040;-69
2021/10/27 05:08:35;;;;;;;36.58;18.67;;;9.20;99.90;;;;;;5039843;28;20123;-69
2021/10/27 05:11:39;;;;;;;40.22;17.63;;;9.30;99.90;;;;;;5030603;28;20049;-69
2021/10/27 05:14:43;;;;;;;40.90;17.52;;;9.20;99.90;;;;;;5033562;28;20392;-69
2021/10/27 05:17:47;;;;;;;35.25;17.50;;;9.20;99.90;;;;;;5037305;28;20043;-69
2021/10/27 05:20:50;;;;;;;36.47;18.20;;;9.20;99.90;;;;;;5043206;28;20822;-69
2021/10/27 05:23:54;;;;;;;33.13;17.27;;;9.30;99.90;;;;;;5024089;28;20045;-69
2021/10/27 05:26:59;;;;;;;34.90;17.45;;;9.30;99.90;;;;;;5040677;28;20060;-69
2021/10/27 05:30:05;;;;;;;30.27;15.88;;;9.30;99.90;;;;;;5042026;28;20648;-69
2021/10/27 05:33:09;;;;;;;36.78;17.73;;;9.30;99.90;;;;;;5035235;28;20048;-69
2021/10/27 05:36:13;;;;;;;35.78;16.80;;;9.30;99.90;;;;;;5024442;28;20501;-69
2021/10/27 05:39:18;;;;;;;33.10;16.70;;;9.40;99.90;;;;;;5042459;28;20051;-70
2021/10/27 05:42:26;;;;;;;34.47;17.35;;;9.40;99.90;;;;;;5035861;28;20499;-70
2021/10/27 05:45:33;;;;;;;31.70;15.75;;;9.30;99.90;;;;;;5040047;28;20819;-69
2021/10/27 05:48:44;;;;;;;35.38;16.90;;;9.30;99.90;;;;;;5035476;28;20044;-70
2021/10/27 05:51:52;;;;;;;35.08;17.48;;;9.30;99.90;;;;;;5037701;28;20047;-69
2021/10/27 05:58:19;;;;;;;29.13;15.38;;;9.40;99.90;;;;;;5032037;28;20041;-69
2021/10/27 06:01:23;;;;;;;33.65;15.73;;;9.60;99.90;;;;;;5033378;28;20048;-69
2021/10/27 06:04:27;;;;;;;31.27;15.88;;;9.70;99.90;;;;;;5036760;28;20040;-69
2021/10/27 06:07:32;;;;;;;35.00;15.30;;;9.90;99.90;;;;;;5033080;28;20494;-70
2021/10/27 06:10:36;;;;;;;26.08;13.93;;;9.90;99.90;;;;;;5038976;28;20050;-69
2021/10/27 06:13:46;;;;;;;32.60;15.18;;;10.10;99.90;;;;;;5036464;28;20507;-69
2021/10/27 06:16:50;;;;;;;26.15;14.63;;;10.10;99.90;;;;;;5035237;28;20040;-70
2021/10/27 06:19:54;;;;;;;27.13;13.43;;;10.30;99.90;;;;;;5042283;28;20396;-69
2021/10/27 06:22:59;;;;;;;29.88;14.93;;;11.10;99.90;;;;;;5032097;28;20064;-70
2021/10/27 06:26:04;;;;;;;19.80;11.65;;;12.50;99.90;;;;;;5031945;28;20048;-70
2021/10/27 06:29:12;;;;;;;24.85;11.60;;;14.10;99.90;;;;;;5020984;28;20041;-70
2021/10/27 06:35:42;;;;;;;21.20;10.50;;;17.50;99.90;;;;;;5030051;28;20392;-70
2021/10/27 06:48:36;;;;;;;16.40;9.50;;;19.70;99.90;;;;;;5021632;28;20044;-71
2021/10/27 06:51:40;;;;;;;18.08;11.10;;;21.50;99.90;;;;;;5026960;28;20115;-70
2021/10/27 06:54:48;;;;;;;20.35;14.68;;;22.30;96.80;;;;;;5033160;28;20057;-70
2021/10/27 06:57:54;;;;;;;16.25;10.07;;;22.00;96.10;;;;;;5026770;28;20515;-70
2021/10/27 07:01:00;;;;;;;13.27;7.30;;;21.40;96.70;;;;;;5036784;28;20403;-70
2021/10/27 07:17:10;;;;;;;17.20;9.82;;;16.60;99.90;;;;;;5032824;28;20099;-70
2021/10/27 07:20:14;;;;;;;15.75;9.40;;;16.20;99.90;;;;;;5035534;28;20044;-70
2021/10/27 07:23:19;;;;;;;16.13;9.10;;;17.80;99.90;;;;;;5032617;28;20040;-70
2021/10/27 07:26:26;;;;;;;12.75;7.53;;;17.50;99.90;;;;;;5036782;28;20048;-70
2021/10/27 07:29:30;;;;;;;12.45;6.78;;;18.40;99.90;;;;;;5029820;28;20052;-70
2021/10/27 07:32:35;;;;;;;14.20;6.57;;;20.90;98.10;;;;;;5027412;28;20057;-70
2021/10/27 07:35:57;;;;;;;9.85;6.35;;;19.50;96.40;;;;;;5031321;28;20435;-70
2021/10/27 07:42:24;;;;;;;11.38;6.22;;;25.00;92.90;;;;;;5034720;28;20060;-71
2021/10/27 07:45:31;;;;;;;9.68;5.28;;;27.20;88.10;;;;;;5038280;28;20052;-71
2021/10/27 07:48:36;;;;;;;8.00;5.68;;;24.40;90.70;;;;;;5040092;28;20056;-71
2021/10/27 07:51:42;;;;;;;8.23;4.78;;;26.40;89.70;;;;;;5037470;28;20056;-71
2021/10/27 07:54:46;;;;;;;8.18;5.03;;;28.60;86.00;;;;;;5038118;28;20040;-71
2021/10/27 07:57:50;;;;;;;10.23;5.00;;;30.20;80.10;;;;;;5032769;28;20053;-71
2021/10/27 08:00:57;;;;;;;9.90;5.03;;;30.90;77.20;;;;;;5035674;28;20049;-71
2021/10/27 08:04:02;;;;;;;8.95;5.10;;;31.30;74.70;;;;;;5030595;28;20036;-71
2021/10/27 08:07:06;;;;;;;8.63;5.00;;;31.60;72.10;;;;;;5035985;28;20040;-71
2021/10/27 08:10:13;;;;;;;10.70;4.85;;;28.50;70.50;;;;;;5032796;28;20052;-71
2021/10/27 08:13:17;;;;;;;7.43;4.40;;;30.20;72.60;;;;;;5033075;28;20044;-71
2021/10/27 08:16:21;;;;;;;6.05;4.13;;;31.60;70.70;;;;;;5039751;28;20056;-71
2021/10/27 08:19:26;;;;;;;5.90;3.90;;;30.00;70.70;;;;;;5029905;28;20503;-71
2021/10/27 08:22:31;;;;;;;11.32;4.68;;;31.00;70.90;;;;;;5026718;28;20109;-69
2021/10/27 08:25:44;;;;;;;8.23;4.50;;;31.00;69.10;;;;;;5032233;28;20404;-71
2021/10/27 08:28:54;;;;;;;7.85;4.38;;;31.30;68.00;;;;;;5028636;28;20045;-71
2021/10/27 08:32:06;;;;;;;6.53;3.90;;;31.50;69.00;;;;;;5024195;28;20049;-71
2021/10/27 08:35:14;;;;;;;8.63;4.68;;;32.50;68.30;;;;;;5039221;28;20044;-69
2021/10/27 08:38:18;;;;;;;7.18;5.07;;;29.70;66.20;;;;;;5034545;28;20048;-69
2021/10/27 08:41:22;;;;;;;8.70;4.50;;;25.90;72.00;;;;;;5028194;28;20052;-69
2021/10/27 08:44:26;;;;;;;10.45;4.30;;;26.70;71.60;;;;;;5031072;28;20057;-69
2021/10/27 08:47:32;;;;;;;7.28;4.15;;;27.90;72.20;;;;;;5031817;28;20065;-69
2021/10/27 08:50:37;;;;;;;7.32;4.38;;;30.00;69.40;;;;;;5032891;28;20052;-69
2021/10/27 08:53:42;;;;;;;7.10;4.35;;;30.10;68.40;;;;;;5031719;28;20045;-71
2021/10/27 08:56:46;;;;;;;10.02;4.68;;;30.20;68.10;;;;;;5038853;28;20052;-71
2021/10/27 09:03:04;;;;;;;7.45;4.65;;;30.10;70.60;;;;;;5028376;28;20048;-71
2021/10/27 09:09:50;;;;;;;5.60;3.90;;;29.40;70.80;;;;;;5029716;28;20060;-71
2021/10/27 09:33:51;;;;;;;6.57;3.90;;;31.70;64.40;;;;;;5035514;28;20044;-71
2021/10/27 10:04:11;;;;;;;5.88;4.05;;;31.70;64.20;;;;;;5035907;28;20076;-71
2021/10/27 10:07:16;;;;;;;6.60;3.88;;;31.90;62.90;;;;;;5038947;28;20048;-70
2021/10/27 10:10:20;;;;;;;6.75;3.65;;;32.30;63.00;;;;;;5036345;28;20400;-70
2021/10/27 10:13:26;;;;;;;6.75;3.63;;;34.80;60.50;;;;;;5035002;28;20044;-70
2021/10/27 10:16:33;;;;;;;5.18;3.10;;;35.00;60.30;;;;;;5022125;28;20387;-71
2021/10/27 10:19:41;;;;;;;6.85;3.22;;;35.50;59.90;;;;;;5034566;28;20052;-71
2021/10/27 10:22:45;;;;;;;6.97;3.25;;;37.00;58.50;;;;;;5039624;28;20040;-71
2021/10/27 10:25:55;;;;;;;5.63;3.22;;;35.20;58.40;;;;;;5027444;28;20040;-71
2021/10/27 10:29:00;;;;;;;5.25;2.95;;;37.60;58.60;;;;;;5029142;28;20041;-71
2021/10/27 10:32:35;;;;;;;4.38;2.90;;;38.80;56.70;;;;;;5036556;28;20060;-71
2021/10/27 10:35:59;;;;;;;6.72;2.88;;;38.40;54.30;;;;;;5027288;28;20052;-71
2021/10/27 10:42:45;;;;;;;;;;;29.90;59.90;;;;;;5033008;28;20040;-70
2021/10/27 10:57:24;;;;;;;4.00;2.50;;;35.80;56.90;;;;;;5020368;28;19984;-71
2021/10/27 11:03:47;;;;;;;6.50;2.70;;;37.50;51.90;;;;;;5022981;28;20049;-69
2021/10/27 11:27:25;;;;;;;6.05;2.30;;;36.70;52.50;;;;;;5028499;28;20061;-71
2021/10/27 11:38:08;;;;;;;3.53;2.10;;;32.40;56.50;;;;;;5031830;28;20044;-73
2021/10/27 11:41:42;;;;;;;4.45;2.10;;;35.60;54.10;;;;;;5039569;28;20044;-73
2021/10/27 11:45:05;;;;;;;3.50;1.85;;;37.90;51.10;;;;;;5022623;28;20045;-72
2021/10/27 11:51:18;;;;;;;2.70;1.85;;;35.20;50.70;;;;;;5028928;28;20045;-74
2021/10/27 11:54:26;;;;;;;6.82;1.88;;;35.20;50.90;;;;;;5033756;28;20044;-73
2021/10/27 11:57:31;;;;;;;4.03;1.92;;;34.60;51.10;;;;;;5043266;28;20048;-72
2021/10/27 12:03:43;;;;;;;4.72;2.03;;;33.90;51.50;;;;;;5035359;28;20051;-70
2021/10/27 12:06:59;;;;;;;4.20;1.92;;;33.00;51.60;;;;;;5041359;28;20048;-70
2021/10/27 12:10:29;;;;;;;2.83;1.88;;;32.70;51.50;;;;;;5041207;28;20056;-72
2021/10/27 12:14:00;;;;;;;2.80;1.50;;;34.40;51.60;;;;;;5037206;28;20113;-71
2021/10/27 12:20:33;;;;;;;2.50;1.77;;;35.20;51.00;;;;;;5031808;28;20057;-72
2021/10/27 12:23:48;;;;;;;3.67;1.83;;;34.50;50.40;;;;;;5038484;28;20056;-73
2021/10/27 12:30:07;;;;;;;3.88;1.80;;;33.50;50.70;;;;;;5038964;28;20397;-71
2021/10/27 12:33:14;;;;;;;5.45;2.55;;;33.90;51.80;;;;;;5038300;28;20040;-72
2021/10/27 12:36:35;;;;;;;3.85;1.70;;;33.90;51.60;;;;;;5040281;28;20048;-72
2021/10/27 12:39:42;;;;;;;4.10;2.60;;;33.00;52.00;;;;;;5037769;28;20377;-70
2021/10/27 12:43:08;;;;;;;4.93;2.00;;;31.90;52.90;;;;;;5032830;28;20546;-71
2021/10/27 12:46:22;;;;;;;5.07;1.95;;;31.90;52.30;;;;;;5042780;28;20387;-71
2021/10/27 12:49:28;;;;;;;3.63;2.00;;;31.90;52.30;;;;;;5018226;28;20041;-70
2021/10/27 12:52:35;;;;;;;5.22;2.10;;;31.00;51.50;;;;;;5026529;28;20044;-70
2021/10/27 12:55:41;;;;;;;6.18;2.10;;;29.60;53.80;;;;;;5024279;28;20040;-71
2021/10/27 12:58:50;;;;;;;3.85;2.10;;;30.10;54.50;;;;;;5029341;28;20037;-71
2021/10/27 13:02:31;;;;;;;6.10;2.15;;;31.30;53.40;;;;;;5033027;28;20047;-72
2021/10/27 13:05:39;;;;;;;3.75;2.03;;;32.50;53.10;;;;;;5036411;28;20060;-71
2021/10/27 13:15:12;;;;;;;3.13;2.00;;;33.00;52.20;;;;;;5027337;28;20365;-71
2021/10/27 13:31:50;;;;;;;5.57;2.45;;;30.30;54.00;;;;;;5029971;28;20053;-70
2021/10/27 13:34:54;;;;;;;10.10;2.88;;;29.40;54.80;;;;;;5030950;28;20053;-70
2021/10/27 13:37:58;;;;;;;4.10;1.92;;;28.90;55.50;;;;;;5029927;28;20041;-70
2021/10/27 13:41:05;;;;;;;3.33;2.10;;;28.70;55.10;;;;;;5021558;28;20059;-70
2021/10/27 13:44:16;;;;;;;2.90;1.92;;;29.00;55.50;;;;;;5031491;28;20486;-70
2021/10/27 14:10:42;;;;;;;5.13;2.42;;;26.60;57.20;;;;;;5031907;28;20044;-71
2021/10/27 14:17:10;;;;;;;3.80;2.35;;;26.90;56.90;;;;;;5031598;28;20044;-69
2021/10/27 15:21:26;;;;;;;7.20;3.10;;;21.10;65.50;;;;;;5038540;28;20063;-70
2021/10/27 15:34:37;;;;;;;8.48;4.30;;;19.60;67.20;;;;;;5036461;28;20037;-69
2021/10/27 15:53:42;;;;;;;6.43;3.85;;;17.80;71.70;;;;;;5045488;28;20383;-70
2021/10/27 15:56:47;;;;;;;11.20;5.80;;;17.60;71.70;;;;;;5036158;28;20041;-70
2021/10/27 15:59:54;;;;;;;9.05;4.50;;;17.20;73.10;;;;;;5032444;28;20036;-69
2021/10/27 16:02:58;;;;;;;6.57;3.80;;;17.10;73.10;;;;;;5044104;28;20056;-70
2021/10/27 16:06:03;;;;;;;8.02;4.88;;;17.10;73.30;;;;;;5041080;28;20048;-69
2021/10/27 16:09:11;;;;;;;10.23;4.32;;;16.90;73.50;;;;;;5044217;28;20056;-69
2021/10/27 16:12:15;;;;;;;6.57;3.83;;;16.80;74.20;;;;;;5031534;28;20326;-69
2021/10/27 16:18:50;;;;;;;7.03;3.92;;;16.60;75.00;;;;;;5022213;28;20387;-69
2021/10/27 16:21:54;;;;;;;6.07;3.20;;;16.50;75.30;;;;;;5041111;28;20044;-68
2021/10/27 16:24:59;;;;;;;6.68;4.55;;;16.40;76.50;;;;;;5040950;28;20049;-70
2021/10/27 16:28:04;;;;;;;8.57;4.90;;;16.30;76.40;;;;;;5036955;28;20045;-69
2021/10/27 16:31:08;;;;;;;12.00;4.00;;;16.20;76.40;;;;;;5032807;28;20396;-70
2021/10/27 16:34:13;;;;;;;7.00;4.50;;;16.10;76.70;;;;;;5039849;28;20048;-69
2021/10/27 16:37:17;;;;;;;8.73;4.57;;;16.10;76.80;;;;;;5036888;28;20436;-69
2021/10/27 16:40:22;;;;;;;5.50;3.72;;;16.00;77.00;;;;;;5035885;28;20052;-69
2021/10/27 16:43:28;;;;;;;6.90;4.07;;;16.00;77.00;;;;;;5034716;28;20041;-69
2021/10/27 16:46:32;;;;;;;9.50;4.03;;;15.90;76.10;;;;;;5030355;28;20076;-70
2021/10/27 16:49:36;;;;;;;7.50;4.03;;;15.90;76.00;;;;;;5037220;28;20059;-69
2021/10/27 16:52:42;;;;;;;5.65;3.58;;;16.10;76.00;;;;;;5036757;28;20036;-69
2021/10/27 16:55:47;;;;;;;8.90;4.47;;;16.00;76.80;;;;;;5034777;28;20045;-69
2021/10/27 16:58:51;;;;;;;7.60;4.78;;;15.90;77.80;;;;;;5035021;28;20522;-70
2021/10/27 17:01:56;;;;;;;8.68;3.60;;;15.80;78.60;;;;;;5038461;28;20043;-70
2021/10/27 17:05:00;;;;;;;7.43;3.45;;;15.60;80.00;;;;;;5047125;28;20044;-70
2021/10/27 17:08:07;;;;;;;5.43;3.67;;;15.40;80.40;;;;;;5038016;28;20044;-70
2021/10/27 17:11:11;;;;;;;8.57;3.13;;;15.20;81.50;;;;;;5035162;28;20063;-70
2021/10/27 17:14:15;;;;;;;5.72;3.15;;;15.00;81.70;;;;;;5033731;28;20591;-70
2021/10/27 17:17:19;;;;;;;7.20;3.15;;;14.90;82.60;;;;;;5033580;28;20039;-70
2021/10/27 17:20:23;;;;;;;7.25;3.10;;;14.70;83.10;;;;;;5040165;28;20044;-70
2021/10/27 17:23:29;;;;;;;11.57;5.85;;;14.60;83.50;;;;;;5037122;28;20040;-70
2021/10/27 17:26:34;;;;;;;9.25;5.07;;;14.50;84.40;;;;;;5029488;28;20037;-70
2021/10/27 17:29:38;;;;;;;8.73;4.82;;;14.40;84.20;;;;;;5032619;28;20053;-70
2021/10/27 17:32:42;;;;;;;10.15;4.60;;;14.30;85.00;;;;;;5038608;28;20044;-69
2021/10/27 17:35:47;;;;;;;8.60;3.92;;;14.30;86.20;;;;;;5040299;28;20478;-69
2021/10/27 17:38:53;;;;;;;7.05;4.05;;;14.20;86.40;;;;;;5030864;28;20045;-69
2021/10/27 17:41:58;;;;;;;9.50;5.20;;;14.00;87.50;;;;;;5035995;28;20041;-70
2021/10/27 17:45:03;;;;;;;8.82;4.40;;;13.80;88.30;;;;;;5034628;28;20052;-69
2021/10/27 17:51:26;;;;;;;8.95;4.57;;;13.60;88.60;;;;;;5030887;28;20401;-69
2021/10/27 18:01:06;;;;;;;7.63;4.40;;;13.40;89.90;;;;;;5040554;28;20482;-69
2021/10/27 18:04:11;;;;;;;15.23;6.07;;;13.40;90.50;;;;;;5039162;28;20040;-70
2021/10/27 18:07:20;;;;;;;11.45;5.35;;;13.30;90.80;;;;;;5038932;28;20039;-69
2021/10/27 18:10:25;;;;;;;9.20;5.03;;;13.20;91.10;;;;;;5025109;28;20040;-70
2021/10/27 18:13:33;;;;;;;12.23;7.90;;;13.20;91.10;;;;;;5036731;28;20052;-70
2021/10/27 18:20:29;;;;;;;11.95;5.93;;;13.10;91.40;;;;;;5037103;28;20052;-70
2021/10/27 18:37:09;;;;;;;33.20;19.65;;;13.00;91.80;;;;;;5005840;28;20044;-69
2021/10/27 18:43:30;;;;;;;11.93;7.28;;;12.80;92.30;;;;;;5032818;28;20048;-69
2021/10/27 18:46:35;;;;;;;15.48;9.98;;;12.80;92.20;;;;;;5033747;28;20056;-69
2021/10/27 18:49:39;;;;;;;13.98;8.95;;;12.80;92.20;;;;;;5035339;28;20043;-69
2021/10/27 18:53:01;;;;;;;16.88;9.35;;;12.80;92.30;;;;;;5040802;28;20043;-69
2021/10/27 18:59:56;;;;;;;10.60;6.00;;;12.70;92.50;;;;;;5037284;28;20040;-69
2021/10/27 19:13:02;;;;;;;11.15;5.60;;;12.50;93.30;;;;;;5032455;28;20400;-69
2021/10/27 19:16:08;;;;;;;10.25;5.72;;;12.60;93.40;;;;;;5039565;28;20040;-69
2021/10/27 19:19:13;;;;;;;9.80;5.70;;;12.70;93.30;;;;;;5038121;28;20060;-69
2021/10/27 19:22:19;;;;;;;8.57;5.40;;;12.70;93.40;;;;;;5032654;28;20099;-69
2021/10/27 19:25:42;;;;;;;8.20;5.47;;;12.80;93.50;;;;;;5038591;28;20052;-69
2021/10/27 19:32:01;;;;;;;9.02;5.53;;;12.70;94.20;;;;;;5041036;28;20056;-69
2021/10/27 20:55:07;;;;;;;10.40;5.90;;;11.30;99.90;;;;;;5039849;28;20559;-69
2021/10/27 20:58:34;;;;;;;12.15;6.85;;;11.30;99.90;;;;;;5025908;28;20041;-69
2021/10/27 21:12:17;;;;;;;13.30;8.25;;;11.00;99.90;;;;;;5044982;28;20056;-70
2021/10/27 21:15:21;;;;;;;11.95;6.32;;;10.90;99.90;;;;;;5042812;28;20040;-69
2021/10/27 21:18:25;;;;;;;12.55;5.93;;;10.70;99.90;;;;;;5041026;28;20048;-69
2021/10/27 21:21:29;;;;;;;14.23;7.60;;;10.80;99.90;;;;;;5034905;28;20053;-69
2021/10/27 21:24:34;;;;;;;10.23;6.57;;;10.70;99.90;;;;;;5032282;28;20045;-69
2021/10/27 21:44:14;;;;;;;17.30;7.40;;;10.70;99.90;;;;;;5027169;28;20391;-69
2021/10/27 21:47:18;;;;;;;12.52;8.02;;;10.70;99.90;;;;;;5028045;28;20060;-69
2021/10/27 21:50:23;;;;;;;15.68;7.32;;;10.70;99.90;;;;;;5032889;28;20336;-69
2021/10/27 21:53:27;;;;;;;13.90;8.48;;;10.60;99.90;;;;;;5034807;28;20052;-69
2021/10/27 21:56:31;;;;;;;12.18;7.57;;;10.60;99.90;;;;;;5035167;28;20064;-69
2021/10/27 21:59:35;;;;;;;14.77;7.20;;;10.60;99.90;;;;;;5036369;28;20059;-69
2021/10/27 22:02:39;;;;;;;14.30;8.00;;;10.60;99.90;;;;;;5028653;28;20045;-69
2021/10/27 22:05:44;;;;;;;13.95;7.13;;;10.60;99.90;;;;;;5037845;28;20040;-69
2021/10/27 22:08:48;;;;;;;11.52;6.88;;;10.60;99.90;;;;;;5033930;28;20055;-69
2021/10/27 22:11:52;;;;;;;16.25;8.25;;;10.50;99.90;;;;;;5038011;28;20060;-69
2021/10/27 22:14:59;;;;;;;16.27;8.43;;;10.40;99.90;;;;;;5045958;28;20036;-69
2021/10/27 22:18:05;;;;;;;13.90;7.40;;;10.30;99.90;;;;;;5041354;28;20043;-69
2021/10/27 22:21:09;;;;;;;10.15;5.05;;;10.30;99.90;;;;;;5041256;28;20039;-69
2021/10/27 22:24:14;;;;;;;14.27;5.15;;;10.20;99.90;;;;;;5038737;28;20052;-69
2021/10/27 22:27:19;;;;;;;11.30;5.90;;;10.10;99.90;;;;;;5032524;28;20040;-69
2021/10/27 22:30:26;;;;;;;8.30;5.38;;;10.10;99.90;;;;;;5033608;28;20048;-70
2021/10/27 22:33:30;;;;;;;11.88;5.68;;;10.10;99.90;;;;;;5038495;28;20048;-69
2021/10/27 22:36:35;;;;;;;10.35;4.53;;;10.00;99.90;;;;;;5033947;28;20045;-69
2021/10/27 22:39:41;;;;;;;11.45;4.78;;;10.00;99.90;;;;;;5035574;28;20041;-69
2021/10/27 22:42:45;;;;;;;9.80;5.05;;;10.00;99.90;;;;;;5038095;28;20120;-69
2021/10/27 22:45:50;;;;;;;10.45;4.65;;;9.90;99.90;;;;;;5041023;28;20124;-69
2021/10/27 22:48:54;;;;;;;9.00;5.40;;;9.90;99.90;;;;;;5030014;28;20057;-69
2021/10/27 22:51:57;;;;;;;8.20;4.97;;;10.00;99.90;;;;;;5038504;28;20500;-69
2021/10/27 22:55:04;;;;;;;7.93;5.15;;;9.90;99.90;;;;;;5041826;28;20048;-69
2021/10/27 22:58:13;;;;;;;10.25;5.25;;;9.80;99.90;;;;;;5035395;28;20361;-69
2021/10/27 23:01:24;;;;;;;10.00;5.78;;;9.80;99.90;;;;;;5019722;28;20060;-69
2021/10/27 23:07:55;;;;;;;8.23;5.18;;;9.80;99.90;;;;;;5042619;28;20283;-69
2021/10/27 23:41:09;;;;;;;10.45;3.72;;;9.40;99.90;;;;;;5031888;28;19916;-69
2021/10/27 23:44:32;;;;;;;7.35;3.95;;;9.30;99.90;;;;;;5034918;28;20383;-69
2021/10/27 23:47:45;;;;;;;4.68;3.30;;;9.30;99.90;;;;;;5023134;28;20045;-69
2021/10/27 23:50:52;;;;;;;4.95;3.45;;;9.30;99.90;;;;;;5026429;28;20057;-69
2021/10/27 23:54:06;;;;;;;7.03;3.58;;;9.30;99.90;;;;;;5037080;28;20041;-69